Latest Coastal Weather Observations for King Island Airport

IDV60701

Issued at 11:15 pm EST Wednesday 30 July 2014 (issued every 10 minutes, with the page automatically refreshed every 10 minutes)

About coastal observations | Map of coastal stations | Coastal observations for VIC | Marine services | Other Formats
Station Details ID: 098017 Name: KING ISLAND AIRPORT Lat: -39.88 Lon: 143.88 Height: 37.0 m
Data from the previous 72 hours. | See also: Recent months at King Island Airport
Date/Time
EST
Temp

°C
Wind Pressure Rain
since 9am
mm
Weather Cloud Vis
km
Sea
Height
m
Swell
Dir
 
Speed
knots
Gust
knots
hPa Trend Height
m
Period
s
Dir
30/11:09pm 13.1 NW 29 39 1000.4 - 5.8 - Partly cloudy - - - - -
30/11:00pm 13.0 NW 28 37 1000.6 - 5.8 - Partly cloudy - - - - -
30/10:33pm 13.1 NW 35 45 1001.2 - 5.6 - Partly cloudy - - - - -
30/10:30pm 13.1 NW 37 45 1001.2 - 5.4 - Partly cloudy - - - - -
30/10:27pm 13.4 NW 38 45 1001.2 - 5.0 - Partly cloudy - - - - -
30/10:16pm 13.1 NW 28 38 1000.9 - 2.8 - Partly cloudy - - - - -
30/10:00pm 13.0 NW 30 38 1001.3 - 2.2 - Partly cloudy - - - - -
30/09:38pm 13.0 NW 26 37 1001.7 - 2.0 - Partly cloudy - - - - -
30/09:30pm 13.0 NW 26 34 1001.8 - 2.0 - Partly cloudy - - - - -
30/09:02pm 13.5 NW 28 38 1002.3 - 1.4 - Partly cloudy - - - - -
30/09:00pm 13.4 NW 29 38 1002.4 - 1.4 - Cloudy - - - - -
30/08:50pm 13.6 NW 30 43 1002.5 - 1.4 - Partly cloudy 5 - - - -
30/08:38pm 13.9 NW 34 44 1002.4 - 1.4 - Partly cloudy 10 - - - -
30/08:30pm 14.2 NW 35 44 1002.4 - 1.4 - Partly cloudy 10 - - - -
30/08:04pm 14.4 NW 28 38 1002.3 - 1.4 - Partly cloudy 10 - - - -
30/08:00pm 14.3 NW 28 35 1002.4 - 1.4 - Partly cloudy 10 - - - -
30/07:30pm 14.0 NW 29 39 1002.5 - 1.4 - Partly cloudy 10 - - - -
30/07:12pm 13.9 NW 31 42 1002.7 - 1.4 - Partly cloudy 10 - - - -
30/07:00pm 13.8 NW 31 38 1002.9 - 1.4 - Partly cloudy 10 - - - -
30/06:31pm 14.0 NW 32 44 1002.7 - 1.2 - Partly cloudy 5 - - - -
30/06:30pm 14.1 NW 32 44 1002.7 - 1.2 - Partly cloudy 6 - - - -
30/06:21pm 14.1 NW 30 41 1002.7 - 1.2 - Partly cloudy 10 - - - -
30/06:00pm 14.2 NW 29 38 1003.0 - 1.2 - Cloudy 10 - - - -
30/05:30pm 14.3 NW 27 37 1002.8 - 1.2 - Partly cloudy 9 - - - -
30/05:26pm 14.5 NW 27 37 1002.8 - 1.2 - Partly cloudy 9 - - - -
30/05:00pm 14.6 NW 28 35 1003.1 - 1.2 - Cloudy 10 - - - -
30/04:32pm 14.5 NW 25 36 1003.2 - 1.2 - Partly cloudy 10 - - - -
30/04:30pm 14.5 NW 25 34 1003.2 - 1.2 - Partly cloudy 10 - - - -
30/04:03pm 14.6 WNW 26 36 1003.5 - 1.2 - Partly cloudy 10 - - - -
30/04:00pm 14.6 WNW 26 32 1003.7 - 1.2 - Partly cloudy 10 - - - -
30/03:30pm 14.8 WNW 31 42 1003.7 - 1.2 - Partly cloudy 10 - - - -
30/03:00pm 14.7 WNW 28 40 1003.7 - 1.2 Rain Cloudy 10 - - - -
30/02:54pm 14.8 WNW 28 38 1003.7 - 1.2 - Partly cloudy 10 - - - -
30/02:30pm 14.0 WNW 27 36 1003.4 - 1.2 - Partly cloudy - - - - -
30/02:10pm 13.8 WNW 23 35 1003.4 - 1.2 - Partly cloudy - - - - -
30/02:00pm 13.8 WNW 22 27 1003.8 - 1.2 - Partly cloudy - - - - -
30/01:40pm 14.2 WNW 23 30 1003.7 - 1.0 - Partly cloudy 5 - - - -
30/01:30pm 14.5 WNW 24 33 1003.8 - 1.0 - Partly cloudy 10 - - - -
30/01:00pm 14.9 WNW 26 33 1004.6 - 1.0 - Partly cloudy 10 - - - -
30/12:30pm 13.4 WNW 28 35 1005.0 - 1.0 - Partly cloudy 3 - - - -
30/12:25pm 14.0 NW 27 34 1005.1 - 0.4 - Partly cloudy 5 - - - -
30/12:00pm 15.1 NW 29 34 1005.4 - 0.2 - Cloudy 10 - - - -
30/11:36am 14.6 NW 27 37 1005.6 - 0.2 - Partly cloudy 10 - - - -
30/11:30am 14.3 NW 29 37 1005.6 - 0.2 - Partly cloudy 10 - - - -
30/11:00am 14.3 NW 26 33 1006.1 - 0.2 - Partly cloudy 10 - - - -
30/10:38am 14.2 WNW 23 33 1006.2 - 0.2 - Partly cloudy 10 - - - -
30/10:33am 14.0 WNW 27 33 1006.2 - 0.2 - Partly cloudy 10 - - - -
30/10:30am 13.9 WNW 28 38 1006.2 - 0.2 - Partly cloudy 10 - - - -
30/10:22am 13.9 WNW 25 38 1006.1 - 0.2 - Partly cloudy 5 - - - -
30/10:20am 13.8 WNW 25 32 1006.1 - 0.2 - Partly cloudy 5 - - - -
30/10:00am 14.5 WNW 29 36 1006.4 - 0.0 - Partly cloudy 10 - - - -
30/09:42am 14.3 NW 29 39 1006.2 - 0.0 - Partly cloudy 10 - - - -
30/09:30am 14.1 WNW 26 35 1006.3 - 0.0 - Partly cloudy 9 - - - -
30/09:00am 13.8 WNW 29 39 1006.5 - 11.0 Recent precip. Mostly clear 10 - - - -
30/08:51am 13.8 NW 26 36 1006.2 - 11.0 - Partly cloudy 10 - - - -
30/08:30am 13.5 NW 26 35 1006.1 - 10.8 - Partly cloudy 10 - - - -
30/08:00am 13.2 WNW 24 34 1006.3 - 10.8 - Partly cloudy 10 - - - -
30/07:34am 13.0 WNW 24 36 1005.9 - 10.8 - Partly cloudy 10 - - - -
30/07:30am 13.2 WNW 24 30 1006.0 - 10.8 - Partly cloudy 10 - - - -
30/07:00am 13.2 WNW 28 41 1006.1 - 10.8 - Partly cloudy 10 - - - -
30/06:42am 13.0 WNW 24 34 1005.5 - 10.8 - Partly cloudy 10 - - - -
30/06:30am 12.8 WNW 20 28 1005.5 - 10.8 - Partly cloudy 10 - - - -
30/06:08am 12.0 WNW 17 27 1005.5 - 10.8 - Partly cloudy 10 - - - -
30/06:00am 12.2 W 17 25 1005.7 - 10.8 Rain Cloudy 10 - - - -
30/05:36am 11.9 W 21 31 1005.7 - 10.8 - Partly cloudy 4 - - - -
30/05:30am 11.7 W 23 31 1005.7 - 10.8 - Partly cloudy 4 - - - -
30/05:00am 12.5 WNW 24 32 1005.9 - 10.4 - Partly cloudy 4 - - - -
30/04:30am 13.1 WNW 21 28 1005.5 - 9.8 - Partly cloudy 10 - - - -
30/04:00am 13.0 WNW 22 30 1005.9 - 9.8 - Partly cloudy 10 - - - -
30/03:34am 13.1 W 21 31 1006.1 - 9.8 - Partly cloudy 10 - - - -
30/03:30am 13.0 W 21 29 1006.1 - 9.8 - Partly cloudy 10 - - - -
30/03:25am 13.0 W 21 31 1006.2 - 9.8 - Partly cloudy 10 - - - -
30/03:00am 13.0 W 22 31 1006.2 - 9.8 - Cloudy 10 - - - -
30/02:30am 13.2 W 24 35 1006.4 - 9.8 - Partly cloudy 9 - - - -
30/02:00am 13.1 W 23 33 1006.1 - 9.8 - Partly cloudy 10 - - - -
30/01:48am 13.4 W 23 34 1005.9 - 9.8 - Partly cloudy 10 - - - -
30/01:30am 13.3 W 18 24 1005.8 - 9.8 - Partly cloudy 9 - - - -
30/01:00am 13.4 W 28 38 1005.6 - 9.8 - Partly cloudy 10 - - - -
30/12:31am 13.7 W 25 35 1005.3 - 9.8 - Partly cloudy 10 - - - -
30/12:30am 13.5 W 25 33 1005.2 - 9.8 - Partly cloudy 10 - - - -
30/12:00am 13.7 W 23 37 1005.0 - 9.8 - Cloudy 10 - - - -
 
Date/Time
EST
Temp

°C
Wind Pressure Rain
since 9am
mm
Weather Cloud Vis
km
Sea
Height
m
Swell
Dir
 
Speed
knots
Gust
knots
hPa Trend Height
m
Period
s
Dir
29/11:30pm 13.9 W 26 40 1004.7 - 9.8 - - 10 - - - -
29/11:00pm 14.0 W 29 41 1004.6 - 9.8 - Partly cloudy 10 - - - -
29/10:30pm 14.1 WNW 30 42 1003.9 - 9.8 - Partly cloudy 10 - - - -
29/10:00pm 13.7 WNW 26 40 1003.8 - 9.8 - Partly cloudy 10 - - - -
29/09:30pm 13.7 W 25 36 1003.8 - 9.8 - Partly cloudy 10 - - - -
29/09:00pm 13.7 W 25 37 1003.6 - 9.8 - Mostly clear 10 - - - -
29/08:30pm 13.8 W 29 42 1003.3 - 9.8 - Partly cloudy 10 - - - -
29/08:00pm 13.8 WNW 29 40 1002.9 - 9.8 - Partly cloudy 10 - - - -
29/07:30pm 13.4 W 25 39 1002.3 - 9.8 - Partly cloudy 9 - - - -
29/07:00pm 14.0 W 29 44 1002.1 - 9.8 - Partly cloudy 9 - - - -
29/06:30pm 14.0 W 28 39 1001.5 - 9.8 - Partly cloudy 9 - - - -
29/06:00pm 13.8 W 32 45 1001.2 - 9.8 Rain - 10 - - - -
29/05:30pm 13.6 WNW 27 42 1000.5 - 9.8 - Partly cloudy - - - - -
29/05:00pm 14.0 WNW 30 40 999.9 - 8.6 - Partly cloudy 3 - - - -
29/04:59pm 14.1 WNW 30 40 999.9 - 8.4 - Partly cloudy 4 - - - -
29/04:58pm 14.2 WNW 31 40 999.9 - 8.2 - Partly cloudy 5 - - - -
29/04:30pm 14.4 WNW 32 43 999.4 - 7.8 - Partly cloudy 9 - - - -
29/04:00pm 14.7 WNW 35 45 998.9 - 7.8 - Partly cloudy 9 - - - -
29/03:30pm 14.8 WNW 35 46 998.8 - 7.8 - Partly cloudy 9 - - - -
29/03:00pm 14.4 WNW 34 45 998.7 - 7.8 Rain Cloudy 8 - - - -
29/02:30pm 14.9 WNW 37 49 998.7 - 7.8 - Partly cloudy 9 - - - -
29/02:01pm 14.7 WNW 33 43 998.3 - 7.8 - Partly cloudy 9 - - - -
29/02:00pm 14.6 WNW 34 43 998.3 - 7.8 - Partly cloudy 9 - - - -
29/01:30pm 14.5 WNW 34 44 998.8 - 7.8 - Partly cloudy 10 - - - -
29/01:00pm 14.4 WNW 33 43 999.1 - 7.8 - Partly cloudy 9 - - - -
29/12:30pm 14.4 WNW 32 43 999.4 - 7.8 - Partly cloudy 10 - - - -
29/12:00pm 14.4 NW 31 41 999.6 - 7.8 Rain Cloudy 9 - - - -
29/11:34am 14.3 WNW 28 38 1000.0 - 7.8 - Partly cloudy - - - - -
29/11:30am 14.3 WNW 29 38 1000.1 - 7.8 - Partly cloudy - - - - -
29/11:00am 14.5 WNW 32 42 1000.4 - 7.4 - Partly cloudy 8 - - - -
29/10:30am 12.6 WNW 33 52 1000.4 - 7.4 - Partly cloudy - - - - -
29/10:00am 12.6 WNW 33 44 1000.6 - 1.2 - Partly cloudy 4 - - - -
29/09:54am 13.5 NW 33 44 1000.4 - 0.2 - Partly cloudy 5 - - - -
29/09:30am 14.4 NW 33 50 1000.0 - 0.0 - Partly cloudy 10 - - - -
29/09:24am 13.9 NW 30 42 999.7 - 0.0 - Partly cloudy - - - - -
29/09:20am 13.8 NW 30 38 1000.0 - 0.0 - Partly cloudy 5 - - - -
29/09:00am 14.4 NW 32 42 1000.0 - 6.6 - Cloudy 9 - - - -
29/08:30am 14.3 NW 30 40 1000.5 - 6.6 - Partly cloudy 10 - - - -
29/08:00am 13.8 NW 31 41 1000.6 - 6.6 - Partly cloudy 9 - - - -
29/07:39am 13.1 WNW 29 39 1000.9 - 6.6 - Partly cloudy - - - - -
29/07:30am 12.5 WNW 26 34 1000.9 - 6.6 - Partly cloudy 7 - - - -
29/07:18am 11.3 WNW 28 41 1001.1 - 6.6 - Partly cloudy 4 - - - -
29/07:15am 11.9 WNW 25 35 1001.5 - 6.4 - Partly cloudy - - - - -
29/07:11am 13.7 NW 25 29 1001.1 - 4.6 - Partly cloudy - - - - -
29/07:00am 13.9 NW 35 45 1000.7 - 4.2 - Partly cloudy - - - - -
29/06:34am 14.0 NW 36 54 1000.1 - 4.2 - Partly cloudy - - - - -
29/06:30am 13.9 NW 33 44 999.6 - 4.0 - Partly cloudy - - - - -
29/06:00am 13.3 NW 30 40 1000.0 - 4.0 Recent precip. Cloudy - - - - -
29/05:30am 13.5 NW 31 42 1000.4 - 3.8 - Partly cloudy - - - - -
29/05:00am 13.5 NNW 29 39 1000.7 - 3.8 - Partly cloudy - - - - -
29/04:30am 13.5 NNW 33 45 1000.8 - 3.8 - Partly cloudy - - - - -
29/04:00am 13.4 NNW 29 39 1001.3 - 3.2 - Partly cloudy - - - - -
29/03:38am 13.3 NNW 31 41 1001.6 - 3.2 - Partly cloudy - - - - -
29/03:30am 13.6 NNW 32 41 1001.7 - 3.2 - Partly cloudy 10 - - - -
29/03:00am 13.7 NNW 32 44 1002.1 - 3.2 - Cloudy 10 - - - -
29/02:30am 13.6 NNW 32 43 1002.4 - 3.2 - Partly cloudy 10 - - - -
29/02:00am 13.4 NNW 32 42 1003.0 - 3.2 - Partly cloudy 10 - - - -
29/01:30am 13.6 NNW 29 40 1003.3 - 3.0 - Partly cloudy 10 - - - -
29/01:00am 13.5 NNW 30 41 1004.0 - 3.0 - Partly cloudy 10 - - - -
29/12:52am 13.4 NNW 29 40 1004.2 - 3.0 - Partly cloudy 10 - - - -
29/12:30am 13.3 NNW 28 34 1004.6 - 3.0 - Partly cloudy - - - - -
29/12:19am 13.3 NNW 27 37 1004.8 - 3.0 - Partly cloudy - - - - -
29/12:00am 12.5 NW 21 27 1005.3 - 2.8 Showers Cloudy 10 - - - -
 
Date/Time
EST
Temp

°C
Wind Pressure Rain
since 9am
mm
Weather Cloud Vis
km
Sea
Height
m
Swell
Dir
 
Speed
knots
Gust
knots
hPa Trend Height
m
Period
s
Dir
28/11:30pm 12.0 NNW 23 30 1005.9 - 2.8 - Partly cloudy 10 - - - -
28/11:00pm 12.1 NNW 24 30 1006.8 - 2.8 - Partly cloudy 10 - - - -
28/10:30pm 12.3 NNW 24 30 1006.9 - 2.8 - Cloudy 10 - - - -
28/10:00pm 12.2 NNW 26 33 1007.0 - 2.8 - Partly cloudy 10 - - - -
28/09:30pm 12.5 NW 29 40 1007.3 - 2.8 - Partly cloudy 10 - - - -
28/09:02pm 13.5 NW 28 41 1007.1 - 2.8 - Partly cloudy 10 - - - -
28/09:00pm 13.6 NW 26 35 1007.3 - 2.8 Showers Cloudy 10 - - - -
28/08:30pm 14.2 NW 28 38 1007.0 - 2.6 - Partly cloudy 10 - - - -
28/08:09pm 14.2 NW 26 38 1006.9 - 2.6 - Partly cloudy 10 - - - -
28/08:00pm 14.1 NW 26 34 1006.9 - 2.6 - Partly cloudy 10 - - - -
28/07:30pm 14.0 NW 26 36 1006.9 - 2.6 - Partly cloudy 10 - - - -
28/07:06pm 13.9 NW 26 38 1007.2 - 2.6 - Partly cloudy 10 - - - -
28/07:00pm 14.1 NW 25 34 1007.3 - 2.6 - Partly cloudy 10 - - - -
28/06:32pm 13.9 NW 25 32 1007.3 - 2.4 - Partly cloudy 10 - - - -
28/06:30pm 13.8 NW 23 31 1007.3 - 2.4 - Partly cloudy 9 - - - -
28/06:21pm 13.7 NW 25 35 1007.2 - 2.4 - Partly cloudy 5 - - - -
28/06:11pm 14.0 NW 25 35 1007.4 - 2.2 - Partly cloudy 10 - - - -
28/06:00pm 14.0 NW 27 35 1007.4 - 2.2 - Cloudy 10 - - - -
28/05:30pm 14.0 NW 23 30 1007.2 - 2.2 - Partly cloudy 10 - - - -
28/05:09pm 14.2 NW 26 36 1007.2 - 2.2 - Partly cloudy 10 - - - -
28/05:00pm 14.1 NW 28 37 1007.4 - 2.2 - Partly cloudy 10 - - - -
28/04:36pm 14.0 NW 29 39 1007.3 - 2.2 - Partly cloudy 10 - - - -
28/04:30pm 14.2 NW 28 37 1007.2 - 2.0 - Partly cloudy 10 - - - -
28/04:16pm 14.3 NW 25 39 1007.3 - 2.0 - Partly cloudy 10 - - - -
28/04:00pm 14.2 NW 26 34 1007.6 - 2.0 - Partly cloudy 10 - - - -
28/03:51pm 14.1 NW 24 34 1007.5 - 2.0 - Partly cloudy 10 - - - -
28/03:30pm 14.1 NW 23 30 1007.7 - 2.0 - Partly cloudy 10 - - - -
28/03:00pm 13.9 NW 22 28 1007.7 - 2.0 - Partly cloudy 10 - - - -
28/02:30pm 13.5 NW 23 30 1008.0 - 2.0 - Partly cloudy - - - - -
28/02:16pm 13.4 NW 23 33 1008.1 - 2.0 - Partly cloudy - - - - -
28/02:00pm 12.7 NW 19 26 1008.4 - 2.0 - Partly cloudy - - - - -
28/01:31pm 13.2 NW 20 27 1008.8 - 1.4 - Partly cloudy 10 - - - -
28/01:30pm 13.2 NW 20 27 1008.8 - 1.4 - Partly cloudy 10 - - - -
28/01:08pm 13.7 NW 19 27 1009.3 - 1.4 - Partly cloudy 9 - - - -
28/01:07pm 13.6 NW 19 27 1009.3 - 1.4 - Partly cloudy 10 - - - -
28/01:00pm 13.8 NW 20 26 1009.5 - 1.4 - Partly cloudy 10 - - - -
28/12:57pm 13.7 NW 20 27 1009.5 - 1.4 - Partly cloudy 10 - - - -
28/12:30pm 14.4 NW 22 29 1010.1 - 1.4 - Partly cloudy 10 - - - -
28/12:00pm 14.2 NW 24 30 1010.4 - 1.4 - Mostly cloudy 10 - - - -
28/11:30am 14.2 NW 22 30 1010.8 - 1.4 - Partly cloudy 10 - - - -
28/11:00am 13.6 NW 21 29 1011.1 - 1.4 - Partly cloudy 10 - - - -
28/10:37am 13.3 NW 21 31 1011.1 - 1.4 - Partly cloudy - - - - -
28/10:30am 13.3 NW 19 25 1011.1 - 1.4 - Partly cloudy - - - - -
28/10:00am 13.2 NW 22 27 1011.1 - 0.6 - Partly cloudy 8 - - - -
28/09:30am 13.4 NW 17 22 1011.0 - 0.4 - Partly cloudy - - - - -
28/09:00am 13.6 NW 18 24 1011.1 - 0.6 Recent precip. Cloudy - - - - -
28/08:30am 13.4 NW 22 29 1011.0 - 0.2 - Partly cloudy - - - - -
28/08:00am 13.6 NW 22 29 1011.2 - 0.0 - Partly cloudy 10 - - - -
28/07:30am 13.4 NW 23 27 1011.3 - 0.0 - Partly cloudy 10 - - - -
28/07:00am 13.5 NW 21 29 1011.1 - 0.0 - Partly cloudy 10 - - - -
28/06:30am 13.5 NNW 23 30 1011.0 - 0.0 - Partly cloudy - - - - -
28/06:00am 13.5 NW 21 27 1011.2 - 0.0 - Mostly clear 10 - - - -
28/05:30am 13.4 NW 20 28 1011.3 - 0.0 - Partly cloudy 10 - - - -
28/05:00am 13.4 NW 21 28 1011.5 - 0.0 - Partly cloudy 10 - - - -
28/04:30am 13.7 NW 20 26 1011.7 - 0.0 - Partly cloudy 10 - - - -
28/04:00am 13.6 NW 20 28 1011.8 - 0.0 - Partly cloudy 10 - - - -
28/03:30am 13.7 NW 20 26 1012.1 - 0.0 - Partly cloudy 10 - - - -
28/03:00am 13.5 NNW 20 26 1012.2 - 0.0 - Cloudy 10 - - - -
28/02:30am 13.7 NW 23 29 1012.6 - 0.0 - Partly cloudy 10 - - - -
28/02:00am 13.4 NNW 23 30 1012.6 - 0.0 - Partly cloudy 10 - - - -
28/01:30am 13.6 NNW 25 32 1012.7 - 0.0 - Partly cloudy 10 - - - -
28/01:00am 13.6 NNW 24 30 1013.1 - 0.0 - Cloudy 10 - - - -
28/12:30am 13.6 NW 24 32 1013.5 - 0.0 - Partly cloudy 10 - - - -
28/12:00am 13.7 NNW 24 32 1013.9 - 0.0 - Partly cloudy 10 - - - -
 
Date/Time
EST
Temp

°C
Wind Pressure Rain
since 9am
mm
Weather Cloud Vis
km
Sea
Height
m
Swell
Dir
 
Speed
knots
Gust
knots
hPa Trend Height
m
Period
s
Dir
27/11:30pm 13.8 NNW 25 30 1014.1 - 0.0 - Partly cloudy 10 - - - -

Other Formats:

Comma delimited format used in spreadsheet applications
http://www.bom.gov.au/fwo/IDV60701/IDV60701.94850.axf

JavaScript Object Notation format (JSON) in row-major order
http://www.bom.gov.au/fwo/IDV60701/IDV60701.94850.json